sensor_id;sensor_type;location;lat;lon;timestamp;pressure;altitude;pressure_sealevel;temperature;humidity
17593;BME280;8915;51.760;14.300;2023-08-21T00:00:12;101579.69;;;22.16;68.30
17593;BME280;8915;51.760;14.300;2023-08-21T00:02:38;101573.91;;;22.14;68.28
17593;BME280;8915;51.760;14.300;2023-08-21T00:05:05;101565.06;;;22.14;68.90
17593;BME280;8915;51.760;14.300;2023-08-21T00:07:32;101559.28;;;22.12;68.29
17593;BME280;8915;51.760;14.300;2023-08-21T00:09:58;101560.44;;;22.11;68.83
17593;BME280;8915;51.760;14.300;2023-08-21T00:12:24;101566.97;;;22.10;69.37
17593;BME280;8915;51.760;14.300;2023-08-21T00:14:51;101560.81;;;22.09;69.39
17593;BME280;8915;51.760;14.300;2023-08-21T00:17:18;101547.34;;;22.09;68.72
17593;BME280;8915;51.760;14.300;2023-08-21T00:19:45;101570.81;;;22.09;69.10
17593;BME280;8915;51.760;14.300;2023-08-21T00:22:11;101558.50;;;22.08;69.01
17593;BME280;8915;51.760;14.300;2023-08-21T00:24:37;101559.28;;;22.08;69.51
17593;BME280;8915;51.760;14.300;2023-08-21T00:27:04;101558.50;;;22.08;69.62
17593;BME280;8915;51.760;14.300;2023-08-21T00:29:31;101548.50;;;22.08;70.30
17593;BME280;8915;51.760;14.300;2023-08-21T00:31:57;101558.50;;;22.08;69.61
17593;BME280;8915;51.760;14.300;2023-08-21T00:34:25;101547.72;;;22.08;69.72
17593;BME280;8915;51.760;14.300;2023-08-21T00:36:51;101548.50;;;22.08;70.79
17593;BME280;8915;51.760;14.300;2023-08-21T00:39:18;101545.03;;;22.08;71.00
17593;BME280;8915;51.760;14.300;2023-08-21T00:41:44;101543.50;;;22.07;70.95
17593;BME280;8915;51.760;14.300;2023-08-21T00:44:11;101540.06;;;22.06;70.97
17593;BME280;8915;51.760;14.300;2023-08-21T00:46:37;101550.81;;;22.06;71.25
17593;BME280;8915;51.760;14.300;2023-08-21T00:49:04;101554.28;;;22.07;70.95
17593;BME280;8915;51.760;14.300;2023-08-21T00:51:32;101555.06;;;22.07;70.87
17593;BME280;8915;51.760;14.300;2023-08-21T00:53:58;101557.38;;;22.09;70.95
17593;BME280;8915;51.760;14.300;2023-08-21T00:56:25;101554.69;;;22.12;72.10
17593;BME280;8915;51.760;14.300;2023-08-21T00:58:53;101547.78;;;22.15;70.99
17593;BME280;8915;51.760;14.300;2023-08-21T01:01:24;101552.38;;;22.18;69.03
17593;BME280;8915;51.760;14.300;2023-08-21T01:03:51;101556.25;;;22.24;72.38
17593;BME280;8915;51.760;14.300;2023-08-21T01:06:18;101559.34;;;22.26;72.17
17593;BME280;8915;51.760;14.300;2023-08-21T01:08:57;101557.81;;;22.32;71.88
17593;BME280;8915;51.760;14.300;2023-08-21T01:11:31;101565.13;;;22.35;70.69
17593;BME280;8915;51.760;14.300;2023-08-21T01:14:06;101556.69;;;22.40;70.83
17593;BME280;8915;51.760;14.300;2023-08-21T01:16:37;101544.00;;;22.44;70.76
17593;BME280;8915;51.760;14.300;2023-08-21T01:19:09;101541.72;;;22.46;69.79
17593;BME280;8915;51.760;14.300;2023-08-21T01:21:36;101546.75;;;22.48;69.46
17593;BME280;8915;51.760;14.300;2023-08-21T01:24:04;101546.34;;;22.49;69.50
17593;BME280;8915;51.760;14.300;2023-08-21T01:26:30;101540.56;;;22.50;68.87
17593;BME280;8915;51.760;14.300;2023-08-21T01:28:57;101541.34;;;22.51;69.10
17593;BME280;8915;51.760;14.300;2023-08-21T01:31:26;101544.03;;;22.51;68.80
17593;BME280;8915;51.760;14.300;2023-08-21T01:33:59;101534.03;;;22.48;68.24
17593;BME280;8915;51.760;14.300;2023-08-21T01:36:28;101536.72;;;22.48;68.74
17593;BME280;8915;51.760;14.300;2023-08-21T01:38:55;101546.75;;;22.48;68.56
17593;BME280;8915;51.760;14.300;2023-08-21T01:41:24;101550.19;;;22.44;68.48
17593;BME280;8915;51.760;14.300;2023-08-21T01:43:50;101555.91;;;22.43;68.61
17593;BME280;8915;51.760;14.300;2023-08-21T01:46:17;101557.84;;;22.42;68.01
17593;BME280;8915;51.760;14.300;2023-08-21T01:48:43;101548.22;;;22.41;68.88
17593;BME280;8915;51.760;14.300;2023-08-21T01:51:09;101557.44;;;22.40;68.88
17593;BME280;8915;51.760;14.300;2023-08-21T01:53:36;101558.22;;;22.41;68.66
17593;BME280;8915;51.760;14.300;2023-08-21T01:56:03;101564.00;;;22.43;68.80
17593;BME280;8915;51.760;14.300;2023-08-21T01:58:33;101557.06;;;22.42;69.66
17593;BME280;8915;51.760;14.300;2023-08-21T02:00:59;101559.75;;;22.42;69.26
17593;BME280;8915;51.760;14.300;2023-08-21T02:03:25;101559.75;;;22.42;69.05
17593;BME280;8915;51.760;14.300;2023-08-21T02:05:55;101566.31;;;22.41;68.98
17593;BME280;8915;51.760;14.300;2023-08-21T02:08:23;101558.22;;;22.41;69.49
17593;BME280;8915;51.760;14.300;2023-08-21T02:10:49;101549.38;;;22.40;69.08
17593;BME280;8915;51.760;14.300;2023-08-21T02:13:15;101565.88;;;22.39;68.38
17593;BME280;8915;51.760;14.300;2023-08-21T02:15:43;101561.66;;;22.38;68.70
17593;BME280;8915;51.760;14.300;2023-08-21T02:18:10;101557.44;;;22.37;69.30
17593;BME280;8915;51.760;14.300;2023-08-21T02:20:37;101557.06;;;22.38;69.36
17593;BME280;8915;51.760;14.300;2023-08-21T02:23:04;101563.59;;;22.37;69.09
17593;BME280;8915;51.760;14.300;2023-08-21T02:25:31;101557.81;;;22.35;68.80
17593;BME280;8915;51.760;14.300;2023-08-21T02:27:57;101557.06;;;22.35;68.53
17593;BME280;8915;51.760;14.300;2023-08-21T02:30:24;101555.13;;;22.32;68.31
17593;BME280;8915;51.760;14.300;2023-08-21T02:32:52;101554.75;;;22.30;68.66
17593;BME280;8915;51.760;14.300;2023-08-21T02:35:18;101564.72;;;22.29;67.85
17593;BME280;8915;51.760;14.300;2023-08-21T02:37:45;101548.56;;;22.26;68.18
17593;BME280;8915;51.760;14.300;2023-08-21T02:40:11;101548.56;;;22.22;67.90
17593;BME280;8915;51.760;14.300;2023-08-21T02:42:37;101548.94;;;22.21;68.00
17593;BME280;8915;51.760;14.300;2023-08-21T02:45:04;101547.78;;;22.18;67.86
17593;BME280;8915;51.760;14.300;2023-08-21T02:47:35;101548.53;;;22.15;68.10
17593;BME280;8915;51.760;14.300;2023-08-21T02:50:03;101551.22;;;22.12;68.12
17593;BME280;8915;51.760;14.300;2023-08-21T02:52:30;101553.91;;;22.08;68.30
17593;BME280;8915;51.760;14.300;2023-08-21T02:54:57;101548.88;;;22.03;67.97
17593;BME280;8915;51.760;14.300;2023-08-21T02:57:24;101547.72;;;22.01;67.54
17593;BME280;8915;51.760;14.300;2023-08-21T02:59:50;101544.63;;;21.95;67.64
17593;BME280;8915;51.760;14.300;2023-08-21T03:02:17;101550.75;;;21.92;67.89
17593;BME280;8915;51.760;14.300;2023-08-21T03:04:43;101549.59;;;21.86;67.57
17593;BME280;8915;51.760;14.300;2023-08-21T03:07:11;101546.09;;;21.82;67.80
17593;BME280;8915;51.760;14.300;2023-08-21T03:09:39;101548.00;;;21.78;68.01
17593;BME280;8915;51.760;14.300;2023-08-21T03:12:06;101542.97;;;21.73;68.01
17593;BME280;8915;51.760;14.300;2023-08-21T03:14:33;101541.44;;;21.69;68.77
17593;BME280;8915;51.760;14.300;2023-08-21T03:16:59;101545.22;;;21.64;68.24
17593;BME280;8915;51.760;14.300;2023-08-21T03:19:26;101537.53;;;21.59;68.43
17593;BME280;8915;51.760;14.300;2023-08-21T03:21:52;101534.03;;;21.55;68.21
17593;BME280;8915;51.760;14.300;2023-08-21T03:24:20;101535.94;;;21.51;68.54
17593;BME280;8915;51.760;14.300;2023-08-21T03:26:47;101522.47;;;21.48;69.11
17593;BME280;8915;51.760;14.300;2023-08-21T03:29:14;101530.13;;;21.46;68.78
17593;BME280;8915;51.760;14.300;2023-08-21T03:31:40;101540.50;;;21.44;69.17
17593;BME280;8915;51.760;14.300;2023-08-21T03:34:08;101536.66;;;21.41;69.74
17593;BME280;8915;51.760;14.300;2023-08-21T03:36:35;101533.56;;;21.39;69.51
17593;BME280;8915;51.760;14.300;2023-08-21T03:39:04;101543.16;;;21.37;69.79
17593;BME280;8915;51.760;14.300;2023-08-21T03:41:34;101548.09;;;21.35;70.35
17593;BME280;8915;51.760;14.300;2023-08-21T03:44:00;101550.41;;;21.33;70.15
17593;BME280;8915;51.760;14.300;2023-08-21T03:46:27;101553.09;;;21.29;70.04
17593;BME280;8915;51.760;14.300;2023-08-21T03:48:54;101553.06;;;21.26;70.47
17593;BME280;8915;51.760;14.300;2023-08-21T03:51:21;101549.97;;;21.24;69.78
17593;BME280;8915;51.760;14.300;2023-08-21T03:53:47;101549.56;;;21.22;70.80
17593;BME280;8915;51.760;14.300;2023-08-21T03:56:13;101546.09;;;21.18;70.57
17593;BME280;8915;51.760;14.300;2023-08-21T03:58:41;101549.13;;;21.16;70.75
17593;BME280;8915;51.760;14.300;2023-08-21T04:01:07;101553.34;;;21.14;70.54
17593;BME280;8915;51.760;14.300;2023-08-21T04:03:34;101559.88;;;21.13;70.85
17593;BME280;8915;51.760;14.300;2023-08-21T04:06:01;101560.59;;;21.10;70.23
17593;BME280;8915;51.760;14.300;2023-08-21T04:08:27;101560.22;;;21.11;70.67
17593;BME280;8915;51.760;14.300;2023-08-21T04:10:54;101564.44;;;21.12;70.47
17593;BME280;8915;51.760;14.300;2023-08-21T04:13:24;101557.97;;;21.13;70.71
17593;BME280;8915;51.760;14.300;2023-08-21T04:15:53;101560.66;;;21.17;70.67
17593;BME280;8915;51.760;14.300;2023-08-21T04:18:21;101563.00;;;21.18;71.25
17593;BME280;8915;51.760;14.300;2023-08-21T04:20:47;101560.31;;;21.22;71.02
17593;BME280;8915;51.760;14.300;2023-08-21T04:23:14;101559.56;;;21.25;71.09
17593;BME280;8915;51.760;14.300;2023-08-21T04:25:40;101553.09;;;21.29;71.30
17593;BME280;8915;51.760;14.300;2023-08-21T04:28:06;101555.41;;;21.34;71.09
17593;BME280;8915;51.760;14.300;2023-08-21T04:30:33;101555.06;;;21.39;72.23
17593;BME280;8915;51.760;14.300;2023-08-21T04:33:01;101561.63;;;21.45;71.30
17593;BME280;8915;51.760;14.300;2023-08-21T04:35:28;101562.81;;;21.51;71.69
17593;BME280;8915;51.760;14.300;2023-08-21T04:37:55;101564.00;;;21.57;71.76
17593;BME280;8915;51.760;14.300;2023-08-21T04:40:24;101563.28;;;21.64;71.60
17593;BME280;8915;51.760;14.300;2023-08-21T04:42:51;101558.31;;;21.69;71.07
17593;BME280;8915;51.760;14.300;2023-08-21T04:45:19;101559.91;;;21.74;71.01
17593;BME280;8915;51.760;14.300;2023-08-21T04:47:46;101564.56;;;21.80;71.58
17593;BME280;8915;51.760;14.300;2023-08-21T04:50:14;101565.31;;;21.84;71.47
17593;BME280;8915;51.760;14.300;2023-08-21T04:52:41;101575.72;;;21.89;70.26
17593;BME280;8915;51.760;14.300;2023-08-21T04:55:08;101576.91;;;21.95;71.23
17593;BME280;8915;51.760;14.300;2023-08-21T04:57:37;101583.84;;;22.00;71.05
17593;BME280;8915;51.760;14.300;2023-08-21T05:00:07;101588.84;;;22.05;71.55
17593;BME280;8915;51.760;14.300;2023-08-21T05:02:37;101594.63;;;22.10;70.99
17593;BME280;8915;51.760;14.300;2023-08-21T05:05:05;101594.66;;;22.14;70.64
17593;BME280;8915;51.760;14.300;2023-08-21T05:07:35;101589.69;;;22.19;71.21
17593;BME280;8915;51.760;14.300;2023-08-21T05:10:02;101591.25;;;22.24;71.10
17593;BME280;8915;51.760;14.300;2023-08-21T05:12:32;101594.31;;;22.29;70.39
17593;BME280;8915;51.760;14.300;2023-08-21T05:14:58;101590.47;;;22.34;70.16
17593;BME280;8915;51.760;14.300;2023-08-21T05:17:25;101592.81;;;22.39;70.19
17593;BME280;8915;51.760;14.300;2023-08-21T05:19:52;101592.47;;;22.44;70.46
17593;BME280;8915;51.760;14.300;2023-08-21T05:22:18;101592.50;;;22.48;70.60
17593;BME280;8915;51.760;14.300;2023-08-21T05:24:47;101594.81;;;22.52;70.25
17593;BME280;8915;51.760;14.300;2023-08-21T05:27:14;101595.56;;;22.56;69.95
17593;BME280;8915;51.760;14.300;2023-08-21T05:29:40;101595.19;;;22.61;69.75
17593;BME280;8915;51.760;14.300;2023-08-21T05:32:07;101590.97;;;22.67;69.38
17593;BME280;8915;51.760;14.300;2023-08-21T05:34:34;101595.22;;;22.72;69.04
17593;BME280;8915;51.760;14.300;2023-08-21T05:37:00;101584.84;;;22.77;69.10
17593;BME280;8915;51.760;14.300;2023-08-21T05:39:27;101583.31;;;22.83;68.42
17593;BME280;8915;51.760;14.300;2023-08-21T05:41:55;101587.94;;;22.86;68.22
17593;BME280;8915;51.760;14.300;2023-08-21T05:44:23;101595.25;;;22.89;68.32
17593;BME280;8915;51.760;14.300;2023-08-21T05:46:51;101609.47;;;22.93;68.62
17593;BME280;8915;51.760;14.300;2023-08-21T05:49:17;101599.47;;;22.97;68.15
17593;BME280;8915;51.760;14.300;2023-08-21T05:51:44;101606.81;;;23.04;68.24
17593;BME280;8915;51.760;14.300;2023-08-21T05:54:10;101610.28;;;23.11;68.11
17593;BME280;8915;51.760;14.300;2023-08-21T05:56:38;101609.91;;;23.20;68.32
17593;BME280;8915;51.760;14.300;2023-08-21T05:59:10;101617.59;;;23.28;67.45
17593;BME280;8915;51.760;14.300;2023-08-21T06:01:36;101609.91;;;23.34;67.71
17593;BME280;8915;51.760;14.300;2023-08-21T06:04:03;101610.69;;;23.42;67.09
17593;BME280;8915;51.760;14.300;2023-08-21T06:06:41;101613.72;;;23.47;67.71
17593;BME280;8915;51.760;14.300;2023-08-21T06:09:07;101606.78;;;23.53;66.89
17593;BME280;8915;51.760;14.300;2023-08-21T06:11:34;101613.72;;;23.58;66.80
17593;BME280;8915;51.760;14.300;2023-08-21T06:14:00;101610.63;;;23.63;66.94
17593;BME280;8915;51.760;14.300;2023-08-21T06:16:28;101616.03;;;23.66;66.64
17593;BME280;8915;51.760;14.300;2023-08-21T06:18:54;101599.81;;;23.69;66.00
17593;BME280;8915;51.760;14.300;2023-08-21T06:21:21;101601.38;;;23.74;66.03
17593;BME280;8915;51.760;14.300;2023-08-21T06:23:47;101602.91;;;23.78;66.32
17593;BME280;8915;51.760;14.300;2023-08-21T06:26:14;101595.94;;;23.81;65.62
17593;BME280;8915;51.760;14.300;2023-08-21T06:28:41;101599.41;;;23.85;65.67
17593;BME280;8915;51.760;14.300;2023-08-21T06:31:08;101602.88;;;23.89;65.63
17593;BME280;8915;51.760;14.300;2023-08-21T06:33:37;101600.19;;;23.93;65.50
17593;BME280;8915;51.760;14.300;2023-08-21T06:36:04;101596.31;;;23.97;65.49
17593;BME280;8915;51.760;14.300;2023-08-21T06:38:30;101609.41;;;24.02;64.93
17593;BME280;8915;51.760;14.300;2023-08-21T06:40:58;101611.31;;;24.09;65.40
17593;BME280;8915;51.760;14.300;2023-08-21T06:43:24;101610.13;;;24.13;64.89
17593;BME280;8915;51.760;14.300;2023-08-21T06:45:53;101613.94;;;24.19;64.01
17593;BME280;8915;51.760;14.300;2023-08-21T06:48:20;101613.16;;;24.26;64.16
17593;BME280;8915;51.760;14.300;2023-08-21T06:50:48;101612.72;;;24.34;64.06
17593;BME280;8915;51.760;14.300;2023-08-21T06:53:14;101615.38;;;24.41;63.41
17593;BME280;8915;51.760;14.300;2023-08-21T06:55:40;101615.34;;;24.48;62.28
17593;BME280;8915;51.760;14.300;2023-08-21T06:58:07;101618.41;;;24.53;62.42
17593;BME280;8915;51.760;14.300;2023-08-21T07:00:33;101619.16;;;24.58;60.93
17593;BME280;8915;51.760;14.300;2023-08-21T07:02:59;101622.25;;;24.63;62.30
17593;BME280;8915;51.760;14.300;2023-08-21T07:05:26;101614.13;;;24.67;61.98
17593;BME280;8915;51.760;14.300;2023-08-21T07:07:53;101613.69;;;24.72;62.10
17593;BME280;8915;51.760;14.300;2023-08-21T07:10:20;101619.03;;;24.79;62.07
17593;BME280;8915;51.760;14.300;2023-08-21T07:12:47;101622.84;;;24.85;61.76
17593;BME280;8915;51.760;14.300;2023-08-21T07:15:13;101620.50;;;24.90;60.11
17593;BME280;8915;51.760;14.300;2023-08-21T07:17:40;101624.31;;;24.96;60.10
17593;BME280;8915;51.760;14.300;2023-08-21T07:20:07;101621.56;;;25.03;61.98
17593;BME280;8915;51.760;14.300;2023-08-21T07:22:34;101621.91;;;25.09;61.05
17593;BME280;8915;51.760;14.300;2023-08-21T07:25:02;101644.66;;;25.15;62.06
17593;BME280;8915;51.760;14.300;2023-08-21T07:27:29;101631.47;;;25.20;60.71
17593;BME280;8915;51.760;14.300;2023-08-21T07:29:56;101634.53;;;25.26;60.58
17593;BME280;8915;51.760;14.300;2023-08-21T07:32:22;101640.66;;;25.33;60.96
17593;BME280;8915;51.760;14.300;2023-08-21T07:34:51;101636.75;;;25.41;61.12
17593;BME280;8915;51.760;14.300;2023-08-21T07:37:18;101637.06;;;25.50;60.26
17593;BME280;8915;51.760;14.300;2023-08-21T07:39:44;101636.19;;;25.60;59.75
17593;BME280;8915;51.760;14.300;2023-08-21T07:42:12;101636.06;;;25.71;60.62
17593;BME280;8915;51.760;14.300;2023-08-21T07:44:38;101648.31;;;25.82;59.22
17593;BME280;8915;51.760;14.300;2023-08-21T07:47:05;101644.75;;;25.92;59.46
17593;BME280;8915;51.760;14.300;2023-08-21T07:49:32;101643.88;;;26.02;59.75
17593;BME280;8915;51.760;14.300;2023-08-21T07:51:59;101644.56;;;26.10;58.51
17593;BME280;8915;51.760;14.300;2023-08-21T07:54:25;101644.41;;;26.20;57.81
17593;BME280;8915;51.760;14.300;2023-08-21T07:56:51;101637.75;;;26.28;57.14
17593;BME280;8915;51.760;14.300;2023-08-21T07:59:19;101641.13;;;26.36;56.55
17593;BME280;8915;51.760;14.300;2023-08-21T08:01:46;101647.97;;;26.44;57.52
17593;BME280;8915;51.760;14.300;2023-08-21T08:04:12;101646.72;;;26.52;57.43
17593;BME280;8915;51.760;14.300;2023-08-21T08:06:38;101647.00;;;26.61;57.63
17593;BME280;8915;51.760;14.300;2023-08-21T08:09:05;101642.22;;;26.72;58.12
17593;BME280;8915;51.760;14.300;2023-08-21T08:11:31;101643.63;;;26.80;56.83
17593;BME280;8915;51.760;14.300;2023-08-21T08:13:58;101642.38;;;26.88;56.89
17593;BME280;8915;51.760;14.300;2023-08-21T08:16:26;101638.41;;;26.92;55.33
17593;BME280;8915;51.760;14.300;2023-08-21T08:18:52;101648.38;;;26.99;54.17
17593;BME280;8915;51.760;14.300;2023-08-21T08:21:19;101633.97;;;27.05;54.26
17593;BME280;8915;51.760;14.300;2023-08-21T08:23:45;101634.25;;;27.11;54.37
17593;BME280;8915;51.760;14.300;2023-08-21T08:26:11;101638.41;;;27.15;53.56
17593;BME280;8915;51.760;14.300;2023-08-21T08:28:39;101642.59;;;27.23;54.92
17593;BME280;8915;51.760;14.300;2023-08-21T08:31:05;101643.31;;;27.27;53.29
17593;BME280;8915;51.760;14.300;2023-08-21T08:33:33;101640.47;;;27.34;54.67
17593;BME280;8915;51.760;14.300;2023-08-21T08:35:59;101634.50;;;27.43;54.16
17593;BME280;8915;51.760;14.300;2023-08-21T08:38:25;101641.03;;;27.45;51.67
17593;BME280;8915;51.760;14.300;2023-08-21T08:40:53;101633.59;;;27.49;52.29
17593;BME280;8915;51.760;14.300;2023-08-21T08:43:21;101639.97;;;27.62;53.70
17593;BME280;8915;51.760;14.300;2023-08-21T08:45:49;101640.09;;;27.75;52.20
17593;BME280;8915;51.760;14.300;2023-08-21T08:48:17;101641.22;;;27.81;51.65
17593;BME280;8915;51.760;14.300;2023-08-21T08:50:47;101636.81;;;27.87;52.39
17593;BME280;8915;51.760;14.300;2023-08-21T08:53:17;101642.50;;;27.92;52.19
17593;BME280;8915;51.760;14.300;2023-08-21T08:55:44;101637.03;;;27.96;50.71
17593;BME280;8915;51.760;14.300;2023-08-21T08:58:11;101631.88;;;28.01;51.57
17593;BME280;8915;51.760;14.300;2023-08-21T09:00:37;101633.28;;;28.09;50.50
17593;BME280;8915;51.760;14.300;2023-08-21T09:03:04;101638.88;;;28.18;51.61
17593;BME280;8915;51.760;14.300;2023-08-21T09:05:30;101628.72;;;28.22;51.75
17593;BME280;8915;51.760;14.300;2023-08-21T09:08:09;101630.94;;;28.27;50.19
17593;BME280;8915;51.760;14.300;2023-08-21T09:10:36;101625.50;;;28.27;51.22
17593;BME280;8915;51.760;14.300;2023-08-21T09:13:08;101625.50;;;28.27;52.28
17593;BME280;8915;51.760;14.300;2023-08-21T09:15:35;101622.03;;;28.27;50.50
17593;BME280;8915;51.760;14.300;2023-08-21T09:18:02;101626.94;;;28.32;52.71
17593;BME280;8915;51.760;14.300;2023-08-21T09:20:34;101631.63;;;28.31;51.58
17593;BME280;8915;51.760;14.300;2023-08-21T09:23:00;101638.47;;;28.39;51.99
17593;BME280;8915;51.760;14.300;2023-08-21T09:25:33;101635.31;;;28.41;51.46
17593;BME280;8915;51.760;14.300;2023-08-21T09:28:04;101629.81;;;28.44;52.39
17593;BME280;8915;51.760;14.300;2023-08-21T09:30:43;101632.13;;;28.46;50.28
17593;BME280;8915;51.760;14.300;2023-08-21T09:33:10;101643.34;;;28.48;50.54
17593;BME280;8915;51.760;14.300;2023-08-21T09:35:36;101640.69;;;28.44;52.46
17593;BME280;8915;51.760;14.300;2023-08-21T09:38:03;101639.06;;;28.47;52.16
17593;BME280;8915;51.760;14.300;2023-08-21T09:40:31;101631.41;;;28.42;51.58
17593;BME280;8915;51.760;14.300;2023-08-21T09:42:57;101633.03;;;28.39;51.87
17593;BME280;8915;51.760;14.300;2023-08-21T09:45:25;101633.81;;;28.40;52.19
17593;BME280;8915;51.760;14.300;2023-08-21T09:47:52;101640.25;;;28.46;52.22
17593;BME280;8915;51.760;14.300;2023-08-21T09:50:19;101634.75;;;28.49;52.36
17593;BME280;8915;51.760;14.300;2023-08-21T09:52:46;101622.28;;;28.52;51.80
17593;BME280;8915;51.760;14.300;2023-08-21T09:55:13;101624.06;;;28.58;51.92
17593;BME280;8915;51.760;14.300;2023-08-21T09:57:41;101616.84;;;28.68;50.62
17593;BME280;8915;51.760;14.300;2023-08-21T10:00:09;101619.34;;;28.78;50.57
17593;BME280;8915;51.760;14.300;2023-08-21T10:02:42;101631.66;;;28.83;51.89
17593;BME280;8915;51.760;14.300;2023-08-21T10:05:11;101620.94;;;28.92;51.51
17593;BME280;8915;51.760;14.300;2023-08-21T10:07:38;101623.88;;;29.01;50.99
17593;BME280;8915;51.760;14.300;2023-08-21T10:10:05;101628.81;;;29.06;51.64
17593;BME280;8915;51.760;14.300;2023-08-21T10:12:32;101630.22;;;29.10;50.48
17593;BME280;8915;51.760;14.300;2023-08-21T10:15:00;101625.81;;;29.16;51.78
17593;BME280;8915;51.760;14.300;2023-08-21T10:17:27;101634.47;;;29.11;50.96
17593;BME280;8915;51.760;14.300;2023-08-21T10:19:53;101625.72;;;29.04;51.01
17593;BME280;8915;51.760;14.300;2023-08-21T10:22:38;101624.78;;;28.94;50.96
17593;BME280;8915;51.760;14.300;2023-08-21T10:25:13;101624.28;;;28.83;51.53
17593;BME280;8915;51.760;14.300;2023-08-21T10:27:40;101619.50;;;28.71;52.31
17593;BME280;8915;51.760;14.300;2023-08-21T10:30:15;101632.41;;;28.67;52.11
17593;BME280;8915;51.760;14.300;2023-08-21T10:32:46;101638.44;;;28.59;52.16
17593;BME280;8915;51.760;14.300;2023-08-21T10:35:17;101630.78;;;28.54;52.36
17593;BME280;8915;51.760;14.300;2023-08-21T10:38:07;101629.81;;;28.44;51.97
17593;BME280;8915;51.760;14.300;2023-08-21T10:40:33;101626.75;;;28.42;52.85
17593;BME280;8915;51.760;14.300;2023-08-21T10:43:00;101628.59;;;28.29;53.52
17593;BME280;8915;51.760;14.300;2023-08-21T10:45:29;101634.50;;;28.24;53.97
17593;BME280;8915;51.760;14.300;2023-08-21T10:47:56;101628.94;;;28.12;54.03
17593;BME280;8915;51.760;14.300;2023-08-21T10:50:23;101633.28;;;28.09;54.38
17593;BME280;8915;51.760;14.300;2023-08-21T10:52:51;101628.03;;;27.99;54.74
17593;BME280;8915;51.760;14.300;2023-08-21T10:55:18;101628.81;;;27.99;55.11
17593;BME280;8915;51.760;14.300;2023-08-21T10:57:46;101634.25;;;27.99;56.28
17593;BME280;8915;51.760;14.300;2023-08-21T11:00:14;101625.69;;;28.01;56.39
17593;BME280;8915;51.760;14.300;2023-08-21T11:02:44;101627.97;;;28.02;56.69
17593;BME280;8915;51.760;14.300;2023-08-21T11:05:11;101622.81;;;28.08;55.50
17593;BME280;8915;51.760;14.300;2023-08-21T11:07:39;101622.75;;;28.11;56.01
17593;BME280;8915;51.760;14.300;2023-08-21T11:10:07;101623.44;;;28.15;55.73
17593;BME280;8915;51.760;14.300;2023-08-21T11:12:33;101615.63;;;28.17;56.09
17593;BME280;8915;51.760;14.300;2023-08-21T11:15:00;101615.13;;;28.22;56.05
17593;BME280;8915;51.760;14.300;2023-08-21T11:17:26;101615.06;;;28.26;56.42
17593;BME280;8915;51.760;14.300;2023-08-21T11:19:55;101609.47;;;28.33;55.12
17593;BME280;8915;51.760;14.300;2023-08-21T11:22:28;101609.25;;;28.43;55.84
17593;BME280;8915;51.760;14.300;2023-08-21T11:24:55;101605.91;;;28.55;56.19
17593;BME280;8915;51.760;14.300;2023-08-21T11:27:21;101606.44;;;28.66;55.42
17593;BME280;8915;51.760;14.300;2023-08-21T11:29:50;101611.19;;;28.78;53.59
17593;BME280;8915;51.760;14.300;2023-08-21T11:32:18;101611.78;;;28.86;52.23
17593;BME280;8915;51.760;14.300;2023-08-21T11:34:48;101609.31;;;28.91;50.69
17593;BME280;8915;51.760;14.300;2023-08-21T11:37:17;101615.94;;;28.90;49.89
17593;BME280;8915;51.760;14.300;2023-08-21T11:39:47;101621.03;;;28.88;49.44
17593;BME280;8915;51.760;14.300;2023-08-21T11:42:15;101614.22;;;28.80;50.65
17593;BME280;8915;51.760;14.300;2023-08-21T11:44:47;101617.44;;;28.75;50.42
17593;BME280;8915;51.760;14.300;2023-08-21T11:47:15;101615.09;;;28.61;48.58
17593;BME280;8915;51.760;14.300;2023-08-21T11:49:43;101623.81;;;28.53;48.22
17593;BME280;8915;51.760;14.300;2023-08-21T11:52:10;101614.00;;;28.39;50.63
17593;BME280;8915;51.760;14.300;2023-08-21T11:54:39;101622.44;;;28.45;51.30
17593;BME280;8915;51.760;14.300;2023-08-21T11:57:07;101613.59;;;28.41;51.67
17593;BME280;8915;51.760;14.300;2023-08-21T11:59:34;101610.47;;;28.42;51.36
17593;BME280;8915;51.760;14.300;2023-08-21T12:02:08;101611.16;;;28.46;50.82
17593;BME280;8915;51.760;14.300;2023-08-21T12:04:35;101621.53;;;28.51;51.07
17593;BME280;8915;51.760;14.300;2023-08-21T12:07:01;101610.97;;;28.53;49.41
17593;BME280;8915;51.760;14.300;2023-08-21T12:09:28;101614.72;;;28.59;50.16
17593;BME280;8915;51.760;14.300;2023-08-21T12:11:56;101609.75;;;28.74;50.20
17593;BME280;8915;51.760;14.300;2023-08-21T12:14:22;101607.63;;;28.81;50.06
17593;BME280;8915;51.760;14.300;2023-08-21T12:16:48;101611.78;;;28.86;49.84
17593;BME280;8915;51.760;14.300;2023-08-21T12:19:15;101601.16;;;28.91;48.34
17593;BME280;8915;51.760;14.300;2023-08-21T12:21:41;101609.66;;;28.93;48.51
17593;BME280;8915;51.760;14.300;2023-08-21T12:24:08;101606.94;;;28.93;47.02
17593;BME280;8915;51.760;14.300;2023-08-21T12:26:34;101606.44;;;28.98;48.12
17593;BME280;8915;51.760;14.300;2023-08-21T12:29:02;101612.03;;;28.91;44.81
17593;BME280;8915;51.760;14.300;2023-08-21T12:31:28;101605.25;;;28.99;45.97
17593;BME280;8915;51.760;14.300;2023-08-21T12:33:55;101597.88;;;29.00;45.83
17593;BME280;8915;51.760;14.300;2023-08-21T12:36:21;101598.97;;;29.02;44.69
17593;BME280;8915;51.760;14.300;2023-08-21T12:38:48;101596.06;;;29.09;45.83
17593;BME280;8915;51.760;14.300;2023-08-21T12:41:14;101591.22;;;29.17;44.92
17593;BME280;8915;51.760;14.300;2023-08-21T12:43:41;101596.97;;;29.19;45.52
17593;BME280;8915;51.760;14.300;2023-08-21T12:46:08;101585.25;;;29.22;45.68
17593;BME280;8915;51.760;14.300;2023-08-21T12:48:35;101587.47;;;29.27;45.71
17593;BME280;8915;51.760;14.300;2023-08-21T12:51:01;101581.91;;;29.30;45.35